createdAt,value
2023-04-22T00:00:27.616Z,3.40
2023-04-22T00:01:27.579Z,3.70
2023-04-22T00:02:27.664Z,3.60
2023-04-22T00:03:27.848Z,4.00
2023-04-22T00:04:27.700Z,3.80
2023-04-22T00:05:27.681Z,3.60
2023-04-22T00:06:27.535Z,3.70
2023-04-22T00:07:27.511Z,3.70
2023-04-22T00:08:27.496Z,3.70
2023-04-22T00:09:27.489Z,3.50
2023-04-22T00:10:27.477Z,3.90
2023-04-22T00:11:27.488Z,4.20
2023-04-22T00:12:27.454Z,3.60
2023-04-22T00:13:27.445Z,3.60
2023-04-22T00:14:27.435Z,3.90
2023-04-22T00:15:27.426Z,3.80
2023-04-22T00:16:27.464Z,3.70
2023-04-22T00:17:27.438Z,4.20
2023-04-22T00:18:27.398Z,4.00
2023-04-22T00:19:27.370Z,3.80
2023-04-22T00:20:27.366Z,3.50
2023-04-22T00:21:27.445Z,4.10
2023-04-22T00:22:27.340Z,3.80
2023-04-22T00:23:27.341Z,3.70
2023-04-22T00:24:27.313Z,3.70
2023-04-22T00:25:27.305Z,3.50
2023-04-22T00:26:27.304Z,3.50
2023-04-22T00:27:27.283Z,3.50
2023-04-22T00:28:27.271Z,4.00
2023-04-22T00:29:27.258Z,3.60
2023-04-22T00:30:27.250Z,3.80
2023-04-22T00:31:27.294Z,3.90
2023-04-22T00:32:27.251Z,3.70
2023-04-22T00:33:27.216Z,3.90
2023-04-22T00:34:27.195Z,4.00
2023-04-22T00:35:27.186Z,3.80
2023-04-22T00:36:27.195Z,4.00
2023-04-22T00:37:27.188Z,3.90
2023-04-22T00:38:27.172Z,3.60
2023-04-22T00:39:27.189Z,3.80
2023-04-22T00:40:27.133Z,3.80
2023-04-22T00:41:27.131Z,3.70
2023-04-22T00:42:27.109Z,4.00
2023-04-22T00:43:27.096Z,3.90
2023-04-22T00:44:27.084Z,3.90
2023-04-22T00:45:27.087Z,3.80
2023-04-22T00:46:27.119Z,3.90
2023-04-22T00:47:27.208Z,3.70
2023-04-22T00:48:28.902Z,3.80
2023-04-22T00:49:27.026Z,3.70
2023-04-22T00:50:27.028Z,4.00
2023-04-22T00:51:27.031Z,4.10
2023-04-22T00:52:26.990Z,4.20
2023-04-22T00:53:27.000Z,3.50
2023-04-22T00:54:26.975Z,4.40
2023-04-22T00:55:26.969Z,4.20
2023-04-22T00:56:26.961Z,3.80
2023-04-22T00:57:26.936Z,4.30
2023-04-22T00:58:26.925Z,3.70
2023-04-22T00:59:26.912Z,4.10
2023-04-22T01:00:26.998Z,4.40
2023-04-22T01:01:27.074Z,3.90
2023-04-22T01:02:27.016Z,4.30
2023-04-22T01:03:27.049Z,3.90
2023-04-22T01:04:26.915Z,3.70
2023-04-22T01:05:26.854Z,4.10
2023-04-22T01:06:26.871Z,3.60
2023-04-22T01:07:26.824Z,4.20
2023-04-22T01:08:26.811Z,3.60
2023-04-22T01:09:26.827Z,4.00
2023-04-22T01:10:26.798Z,3.50
2023-04-22T01:11:26.803Z,3.60
2023-04-22T01:12:26.768Z,3.70
2023-04-22T01:13:26.766Z,4.10
2023-04-22T01:14:26.768Z,4.60
2023-04-22T01:15:26.742Z,3.80
2023-04-22T01:16:26.764Z,3.80
2023-04-22T01:17:26.762Z,3.80
2023-04-22T01:18:26.709Z,4.30
2023-04-22T01:19:26.693Z,3.90
2023-04-22T01:20:26.721Z,4.20
2023-04-22T01:21:27.205Z,4.30
2023-04-22T01:22:26.663Z,4.40
2023-04-22T01:23:26.645Z,4.20
2023-04-22T01:24:26.636Z,4.10
2023-04-22T01:25:26.641Z,4.10
2023-04-22T01:26:26.629Z,4.60
2023-04-22T01:27:26.601Z,4.30
2023-04-22T01:28:26.657Z,4.10
2023-04-22T01:29:26.584Z,4.60
2023-04-22T01:30:26.576Z,4.20
2023-04-22T01:31:26.585Z,4.10
2023-04-22T01:32:26.726Z,4.30
2023-04-22T01:33:26.565Z,4.20
2023-04-22T01:34:26.527Z,4.00
2023-04-22T01:35:26.527Z,4.40
2023-04-22T01:36:26.515Z,4.40
2023-04-22T01:37:26.495Z,4.30
2023-04-22T01:38:26.483Z,4.10
2023-04-22T01:39:26.471Z,4.50
2023-04-22T01:40:26.458Z,4.30
2023-04-22T01:41:26.471Z,4.10
2023-04-22T01:42:26.439Z,4.30
2023-04-22T01:43:26.421Z,4.50
2023-04-22T01:44:26.430Z,4.10
2023-04-22T01:45:26.399Z,4.20
2023-04-22T01:46:26.546Z,4.40
2023-04-22T01:47:26.382Z,3.80
2023-04-22T01:48:26.376Z,4.10
2023-04-22T01:49:26.353Z,4.50
2023-04-22T01:50:26.353Z,4.20
2023-04-22T01:51:26.351Z,4.30
2023-04-22T01:52:26.325Z,4.40
2023-04-22T01:53:26.310Z,4.30
2023-04-22T01:54:26.300Z,4.30
2023-04-22T01:55:26.292Z,4.10
2023-04-22T01:56:26.302Z,4.00
2023-04-22T01:57:26.309Z,3.90
2023-04-22T01:58:26.254Z,4.60
2023-04-22T01:59:26.241Z,4.10
2023-04-22T02:00:26.246Z,4.40
2023-04-22T02:01:26.312Z,4.30
2023-04-22T02:02:26.295Z,4.20
2023-04-22T02:03:26.353Z,4.30
2023-04-22T02:04:26.231Z,4.10
2023-04-22T02:05:26.166Z,4.30
2023-04-22T02:06:26.176Z,4.40
2023-04-22T02:07:26.148Z,4.40
2023-04-22T02:08:26.141Z,4.20
2023-04-22T02:09:26.124Z,4.30
2023-04-22T02:10:26.117Z,4.40
2023-04-22T02:11:26.112Z,4.50
2023-04-22T02:12:26.096Z,4.80
2023-04-22T02:13:26.101Z,4.60
2023-04-22T02:14:26.068Z,4.00
2023-04-22T02:15:26.059Z,4.30
2023-04-22T02:16:26.089Z,4.30
2023-04-22T02:17:26.034Z,4.10
2023-04-22T02:18:26.035Z,4.40
2023-04-22T02:19:26.061Z,4.70
2023-04-22T02:20:25.995Z,4.50
2023-04-22T02:21:25.995Z,4.60
2023-04-22T02:22:25.972Z,4.40
2023-04-22T02:23:25.984Z,4.40
2023-04-22T02:24:25.961Z,4.40
2023-04-22T02:25:25.942Z,4.90
2023-04-22T02:26:25.972Z,4.20
2023-04-22T02:27:25.923Z,4.30
2023-04-22T02:28:25.909Z,4.80
2023-04-22T02:29:25.919Z,4.80
2023-04-22T02:30:25.902Z,4.20
2023-04-22T02:31:25.972Z,4.60
2023-04-22T02:32:25.916Z,4.40
2023-04-22T02:33:25.855Z,4.30
2023-04-22T02:34:25.840Z,4.50
2023-04-22T02:35:25.825Z,4.60
2023-04-22T02:36:25.833Z,4.70
2023-04-22T02:37:25.799Z,5.10
2023-04-22T02:38:25.800Z,5.00
2023-04-22T02:39:25.797Z,4.20
2023-04-22T02:40:25.775Z,4.40
2023-04-22T02:41:25.770Z,5.00
2023-04-22T02:42:25.747Z,4.60
2023-04-22T02:43:25.740Z,4.60
2023-04-22T02:44:25.722Z,4.10
2023-04-22T02:45:25.759Z,4.10
2023-04-22T02:46:25.782Z,4.10
2023-04-22T02:47:25.723Z,4.50
2023-04-22T02:48:25.675Z,4.70
2023-04-22T02:49:25.679Z,4.30
2023-04-22T02:50:25.655Z,4.40
2023-04-22T02:51:25.668Z,4.30
2023-04-22T02:52:25.631Z,4.40
2023-04-22T02:53:25.616Z,4.40
2023-04-22T02:54:25.612Z,4.20
2023-04-22T02:55:25.593Z,4.30
2023-04-22T02:56:25.596Z,4.50
2023-04-22T02:57:25.572Z,4.30
2023-04-22T02:58:25.565Z,4.30
2023-04-22T02:59:25.567Z,4.30
2023-04-22T03:00:25.534Z,4.20
2023-04-22T03:01:25.642Z,4.40
2023-04-22T03:02:25.657Z,4.50
2023-04-22T03:03:25.615Z,4.00
2023-04-22T03:04:25.812Z,4.60
2023-04-22T03:05:25.492Z,3.90
2023-04-22T03:06:25.495Z,4.20
2023-04-22T03:07:25.461Z,4.70
2023-04-22T03:08:25.442Z,4.60
2023-04-22T03:09:25.432Z,4.40
2023-04-22T03:10:25.433Z,4.60
2023-04-22T03:11:25.432Z,4.30
2023-04-22T03:12:25.420Z,4.40
2023-04-22T03:13:25.401Z,4.90
2023-04-22T03:14:25.379Z,4.40
2023-04-22T03:15:25.366Z,4.70
2023-04-22T03:16:25.430Z,4.60
2023-04-22T03:17:25.393Z,4.90
2023-04-22T03:18:25.334Z,4.60
2023-04-22T03:19:25.330Z,4.50
2023-04-22T03:20:25.311Z,4.30
2023-04-22T03:21:25.317Z,4.80
2023-04-22T03:22:25.297Z,4.70
2023-04-22T03:23:25.286Z,4.80
2023-04-22T03:24:25.269Z,4.30
2023-04-22T03:25:25.264Z,4.70
2023-04-22T03:26:25.263Z,4.60
2023-04-22T03:27:25.238Z,4.40
2023-04-22T03:28:25.279Z,4.20
2023-04-22T03:29:25.212Z,5.50
2023-04-22T03:30:25.214Z,4.70
2023-04-22T03:31:25.247Z,4.50
2023-04-22T03:32:25.206Z,4.60
2023-04-22T03:33:25.188Z,4.80
2023-04-22T03:34:25.154Z,4.50
2023-04-22T03:35:25.150Z,5.00
2023-04-22T03:36:25.153Z,4.40
2023-04-22T03:37:25.119Z,4.70
2023-04-22T03:38:25.112Z,4.50
2023-04-22T03:39:25.111Z,4.80
2023-04-22T03:40:25.087Z,4.60
2023-04-22T03:41:25.100Z,4.70
2023-04-22T03:42:25.063Z,4.30
2023-04-22T03:43:25.051Z,5.00
2023-04-22T03:44:25.046Z,5.00
2023-04-22T03:45:25.041Z,4.40
2023-04-22T03:46:25.082Z,4.60
2023-04-22T03:47:25.101Z,4.10
2023-04-22T03:48:24.996Z,4.40
2023-04-22T03:49:25.024Z,4.80
2023-04-22T03:50:24.976Z,4.40
2023-04-22T03:51:24.975Z,4.30
2023-04-22T03:52:24.978Z,4.60
2023-04-22T03:53:24.947Z,4.50
2023-04-22T03:54:24.933Z,4.50
2023-04-22T03:55:24.924Z,4.20
2023-04-22T03:56:24.906Z,4.20
2023-04-22T03:57:24.955Z,4.80
2023-04-22T03:58:24.886Z,4.70
2023-04-22T03:59:24.871Z,4.40
2023-04-22T04:00:24.861Z,4.70
2023-04-22T04:01:24.848Z,4.40
2023-04-22T04:02:24.994Z,4.30
2023-04-22T04:03:25.202Z,4.90
2023-04-22T04:04:25.222Z,4.10
2023-04-22T04:05:24.909Z,4.70
2023-04-22T04:06:24.801Z,4.70
2023-04-22T04:07:24.796Z,4.50
2023-04-22T04:08:24.774Z,4.70
2023-04-22T04:09:24.759Z,4.40
2023-04-22T04:10:24.754Z,4.90
2023-04-22T04:11:24.762Z,4.20
2023-04-22T04:12:24.752Z,4.70
2023-04-22T04:13:24.716Z,4.40
2023-04-22T04:14:24.722Z,4.50
2023-04-22T04:15:24.700Z,4.80
2023-04-22T04:16:24.752Z,4.00
2023-04-22T04:17:24.707Z,4.70
2023-04-22T04:18:24.662Z,4.30
2023-04-22T04:19:24.654Z,4.20
2023-04-22T04:20:24.636Z,4.30
2023-04-22T04:21:24.722Z,4.10
2023-04-22T04:22:24.653Z,4.30
2023-04-22T04:23:24.603Z,4.40
2023-04-22T04:24:24.595Z,4.20
2023-04-22T04:25:24.583Z,3.80
2023-04-22T04:26:24.579Z,4.40
2023-04-22T04:27:24.568Z,4.40
2023-04-22T04:28:24.547Z,4.20
2023-04-22T04:29:24.538Z,4.30
2023-04-22T04:30:24.528Z,4.40
2023-04-22T04:31:24.638Z,4.10
2023-04-22T04:32:24.567Z,4.50
2023-04-22T04:33:24.491Z,4.10
2023-04-22T04:34:24.489Z,4.00
2023-04-22T04:35:24.468Z,4.30
2023-04-22T04:36:24.453Z,3.90
2023-04-22T04:37:24.582Z,4.10
2023-04-22T04:38:24.436Z,3.70
2023-04-22T04:39:24.419Z,4.50
2023-04-22T04:40:24.407Z,4.70
2023-04-22T04:41:24.405Z,4.70
2023-04-22T04:42:24.410Z,4.20
2023-04-22T04:43:24.387Z,4.40
2023-04-22T04:44:24.365Z,4.50
2023-04-22T04:45:24.357Z,4.60
2023-04-22T04:46:24.394Z,4.70
2023-04-22T04:47:24.384Z,5.00
2023-04-22T04:48:24.326Z,4.70
2023-04-22T04:49:24.333Z,4.80
2023-04-22T04:50:24.317Z,5.20
2023-04-22T04:51:24.304Z,4.60
2023-04-22T04:52:24.297Z,4.90
2023-04-22T04:53:24.275Z,4.90
2023-04-22T04:54:24.258Z,4.80
2023-04-22T04:55:24.240Z,4.60
2023-04-22T04:56:24.248Z,5.20
2023-04-22T04:57:24.219Z,4.90
2023-04-22T04:58:24.209Z,5.20
2023-04-22T04:59:24.205Z,5.10
2023-04-22T05:00:24.191Z,5.70
2023-04-22T05:01:24.239Z,4.90
2023-04-22T05:02:24.380Z,5.40
2023-04-22T05:03:24.265Z,4.90
2023-04-22T05:04:24.296Z,4.70
2023-04-22T05:05:24.140Z,4.50
2023-04-22T05:06:24.128Z,4.40
2023-04-22T05:07:24.136Z,4.80
2023-04-22T05:08:24.090Z,4.90
2023-04-22T05:09:24.104Z,5.00
2023-04-22T05:10:24.084Z,4.80
2023-04-22T05:11:24.070Z,4.20
2023-04-22T05:12:24.097Z,4.10
2023-04-22T05:13:24.055Z,5.20
2023-04-22T05:14:24.037Z,4.60
2023-04-22T05:15:24.015Z,4.50
2023-04-22T05:16:24.060Z,5.20
2023-04-22T05:17:24.039Z,4.90
2023-04-22T05:18:23.983Z,4.70
2023-04-22T05:19:23.974Z,5.50
2023-04-22T05:20:23.977Z,5.40
2023-04-22T05:21:23.957Z,5.00
2023-04-22T05:22:23.964Z,5.90
2023-04-22T05:23:23.927Z,5.80
2023-04-22T05:24:23.936Z,5.40
2023-04-22T05:25:23.930Z,5.40
2023-04-22T05:26:23.893Z,5.30
2023-04-22T05:27:23.904Z,5.60
2023-04-22T05:28:23.877Z,5.40
2023-04-22T05:29:23.862Z,5.30
2023-04-22T05:30:23.856Z,5.50
2023-04-22T05:31:23.902Z,5.70
2023-04-22T05:32:23.934Z,5.60
2023-04-22T05:33:23.828Z,5.70
2023-04-22T05:34:23.803Z,5.60
2023-04-22T05:35:23.793Z,5.50
2023-04-22T05:36:23.781Z,5.70
2023-04-22T05:37:23.969Z,5.70
2023-04-22T05:38:23.758Z,5.80
2023-04-22T05:39:23.751Z,5.60
2023-04-22T05:40:23.739Z,6.20
2023-04-22T05:41:23.741Z,5.80
2023-04-22T05:42:23.741Z,6.00
2023-04-22T05:43:23.704Z,5.30
2023-04-22T05:44:23.697Z,5.70
2023-04-22T05:45:23.682Z,5.40
2023-04-22T05:46:23.775Z,5.80
2023-04-22T05:47:23.725Z,5.60
2023-04-22T05:48:23.646Z,5.70
2023-04-22T05:49:23.632Z,5.30
2023-04-22T05:50:23.622Z,6.00
2023-04-22T05:51:23.628Z,5.60
2023-04-22T05:52:23.623Z,5.60
2023-04-22T05:53:23.588Z,5.50
2023-04-22T05:54:23.574Z,5.60
2023-04-22T05:55:23.570Z,5.60
2023-04-22T05:56:23.559Z,5.80
2023-04-22T05:57:23.574Z,5.70
2023-04-22T05:58:23.525Z,4.50
2023-04-22T05:59:23.520Z,4.80
2023-04-22T06:00:23.512Z,5.00
2023-04-22T06:01:23.507Z,5.00
2023-04-22T06:02:23.620Z,4.90
2023-04-22T06:03:23.647Z,4.90
2023-04-22T06:04:23.950Z,5.50
2023-04-22T06:05:23.599Z,4.90
2023-04-22T06:06:23.440Z,4.60
2023-04-22T06:07:23.459Z,5.00
2023-04-22T06:08:23.423Z,4.50
2023-04-22T06:09:23.412Z,4.00
2023-04-22T06:10:23.418Z,3.90
2023-04-22T06:11:23.393Z,3.60
2023-04-22T06:12:23.385Z,4.00
2023-04-22T06:13:23.373Z,3.50
2023-04-22T06:14:23.349Z,3.70
2023-04-22T06:15:23.337Z,3.40
2023-04-22T06:16:23.332Z,3.40
2023-04-22T06:17:23.357Z,3.80
2023-04-22T06:18:23.315Z,3.60
2023-04-22T06:19:23.292Z,3.80
2023-04-22T06:20:23.274Z,3.40
2023-04-22T06:21:23.266Z,3.40
2023-04-22T06:22:23.279Z,3.90
2023-04-22T06:23:23.263Z,3.70
2023-04-22T06:24:23.242Z,3.30
2023-04-22T06:25:23.229Z,3.70
2023-04-22T06:26:23.233Z,3.70
2023-04-22T06:27:23.234Z,3.60
2023-04-22T06:28:23.181Z,3.40
2023-04-22T06:29:23.197Z,3.40
2023-04-22T06:30:23.183Z,3.70
2023-04-22T06:31:23.168Z,4.00
2023-04-22T06:32:23.156Z,3.20
2023-04-22T06:33:23.130Z,3.80
2023-04-22T06:34:23.116Z,3.20
2023-04-22T06:35:23.129Z,3.60
2023-04-22T06:36:23.096Z,3.70
2023-04-22T06:37:23.100Z,3.80
2023-04-22T06:38:23.090Z,3.40
2023-04-22T06:39:23.064Z,3.50
2023-04-22T06:40:23.053Z,3.90
2023-04-22T06:41:23.039Z,3.60
2023-04-22T06:42:23.038Z,3.30
2023-04-22T06:43:23.021Z,3.80
2023-04-22T06:44:23.003Z,3.40
2023-04-22T06:45:23.117Z,3.40
2023-04-22T06:46:23.040Z,3.70
2023-04-22T06:47:23.009Z,3.60
2023-04-22T06:48:22.964Z,3.80
2023-04-22T06:49:22.957Z,3.40
2023-04-22T06:50:22.949Z,3.50
2023-04-22T06:51:22.942Z,3.30
2023-04-22T06:52:24.083Z,3.70
2023-04-22T06:53:22.898Z,3.40
2023-04-22T06:54:22.891Z,3.70
2023-04-22T06:55:22.883Z,3.60
2023-04-22T06:56:22.866Z,3.60
2023-04-22T06:57:22.873Z,3.60
2023-04-22T06:58:22.849Z,3.40
2023-04-22T06:59:22.836Z,3.40
2023-04-22T07:00:22.825Z,3.70
2023-04-22T07:01:22.872Z,3.30
2023-04-22T07:02:22.929Z,3.30
2023-04-22T07:03:23.006Z,3.10
2023-04-22T07:04:22.814Z,3.70
2023-04-22T07:05:22.768Z,3.60
2023-04-22T07:06:22.754Z,3.60
2023-04-22T07:07:22.768Z,3.60
2023-04-22T07:08:22.735Z,3.60
2023-04-22T07:09:22.717Z,3.40
2023-04-22T07:10:22.707Z,3.20
2023-04-22T07:11:22.707Z,3.40
2023-04-22T07:12:22.707Z,5.30
2023-04-22T07:13:22.681Z,3.70
2023-04-22T07:14:22.666Z,5.30
2023-04-22T07:15:22.652Z,4.00
2023-04-22T07:16:22.699Z,4.00
2023-04-22T07:17:22.858Z,3.60
2023-04-22T07:18:22.626Z,3.80
2023-04-22T07:19:22.611Z,4.40
2023-04-22T07:20:22.615Z,3.10
2023-04-22T07:21:22.586Z,4.00
2023-04-22T07:22:22.591Z,3.50
2023-04-22T07:23:22.561Z,3.70
2023-04-22T07:24:22.553Z,3.40
2023-04-22T07:25:22.547Z,3.40
2023-04-22T07:26:22.528Z,3.40
2023-04-22T07:27:22.530Z,3.30
2023-04-22T07:28:22.508Z,3.50
2023-04-22T07:29:22.495Z,3.70
2023-04-22T07:30:22.497Z,3.30
2023-04-22T07:31:22.489Z,3.40
2023-04-22T07:32:22.512Z,3.20
2023-04-22T07:33:22.464Z,3.30
2023-04-22T07:34:22.443Z,3.50
2023-04-22T07:35:22.426Z,3.30
2023-04-22T07:36:22.421Z,3.30
2023-04-22T07:37:22.419Z,3.40
2023-04-22T07:38:22.389Z,3.50
2023-04-22T07:39:22.375Z,3.40
2023-04-22T07:40:22.400Z,3.40
2023-04-22T07:41:22.363Z,3.50
2023-04-22T07:42:22.370Z,3.80
2023-04-22T07:43:22.332Z,2.70
2023-04-22T07:44:22.324Z,3.70
2023-04-22T07:45:22.312Z,3.60
2023-04-22T07:46:22.317Z,3.10
2023-04-22T07:47:22.334Z,3.30
2023-04-22T07:48:22.282Z,3.30
2023-04-22T07:49:22.283Z,3.00
2023-04-22T07:50:22.259Z,3.10
2023-04-22T07:51:22.247Z,3.60
2023-04-22T07:52:22.257Z,3.20
2023-04-22T07:53:22.231Z,3.00
2023-04-22T07:54:22.222Z,3.30
2023-04-22T07:55:22.196Z,3.20
2023-04-22T07:56:22.186Z,3.40
2023-04-22T07:57:22.227Z,3.20
2023-04-22T07:58:22.222Z,3.20
2023-04-22T07:59:22.152Z,3.40
2023-04-22T08:00:22.150Z,2.90
2023-04-22T08:01:22.171Z,2.90
2023-04-22T08:02:22.197Z,2.90
2023-04-22T08:03:22.281Z,3.20
2023-04-22T08:04:22.400Z,3.00
2023-04-22T08:05:22.185Z,3.40
2023-04-22T08:06:22.082Z,3.20
2023-04-22T08:08:22.056Z,3.20
2023-04-22T08:09:22.046Z,3.00
2023-04-22T08:10:22.037Z,2.60
2023-04-22T08:11:22.036Z,3.10
2023-04-22T08:12:22.029Z,3.00
2023-04-22T08:13:22.020Z,2.90
2023-04-22T08:14:22.001Z,2.80
2023-04-22T08:15:21.988Z,3.00
2023-04-22T08:16:22.042Z,2.70
2023-04-22T08:17:22.171Z,2.80
2023-04-22T08:18:21.948Z,3.50
2023-04-22T08:19:21.960Z,2.90
2023-04-22T08:20:21.980Z,2.90
2023-04-22T08:21:21.935Z,2.90
2023-04-22T08:22:21.917Z,3.30
2023-04-22T08:23:21.902Z,3.10
2023-04-22T08:24:21.896Z,2.90
2023-04-22T08:25:21.891Z,3.20
2023-04-22T08:26:21.857Z,2.80
2023-04-22T08:27:21.890Z,3.20
2023-04-22T08:28:21.841Z,2.80
2023-04-22T08:29:21.824Z,3.10
2023-04-22T08:30:21.899Z,2.90
2023-04-22T08:31:21.816Z,3.00
2023-04-22T08:32:21.860Z,2.80
2023-04-22T08:33:21.793Z,3.00
2023-04-22T08:34:21.792Z,2.90
2023-04-22T08:35:21.785Z,3.10
2023-04-22T08:36:21.763Z,3.40
2023-04-22T08:37:21.771Z,3.00
2023-04-22T08:38:21.727Z,3.00
2023-04-22T08:39:21.722Z,2.60
2023-04-22T08:40:21.734Z,3.40
2023-04-22T08:41:21.708Z,2.70
2023-04-22T08:42:21.963Z,3.10
2023-04-22T08:43:21.676Z,3.10
2023-04-22T08:44:21.664Z,2.70
2023-04-22T08:45:21.645Z,3.10
2023-04-22T08:46:21.656Z,2.90
2023-04-22T08:47:21.646Z,2.60
2023-04-22T08:48:57.547Z,2.90
2023-04-22T08:49:21.601Z,2.60
2023-04-22T08:50:21.585Z,3.10
2023-04-22T08:51:21.578Z,2.70
2023-04-22T08:52:21.693Z,2.90
2023-04-22T08:53:24.260Z,3.20
2023-04-22T08:54:21.544Z,3.20
2023-04-22T08:55:21.540Z,2.90
2023-04-22T08:56:21.519Z,2.70
2023-04-22T08:57:21.535Z,2.50
2023-04-22T08:58:21.498Z,2.60
2023-04-22T08:59:21.491Z,2.60
2023-04-22T09:00:21.581Z,2.90
2023-04-22T09:01:21.486Z,2.80
2023-04-22T09:02:21.488Z,2.60
2023-04-22T09:03:21.543Z,2.80
2023-04-22T09:04:21.617Z,2.80
2023-04-22T09:05:21.419Z,2.80
2023-04-22T09:06:21.406Z,2.80
2023-04-22T09:07:21.935Z,2.60
2023-04-22T09:08:21.380Z,2.90
2023-04-22T09:09:21.392Z,2.90
2023-04-22T09:10:21.365Z,3.10
2023-04-22T09:11:21.350Z,2.90
2023-04-22T09:12:21.357Z,2.90
2023-04-22T09:13:21.327Z,3.10
2023-04-22T09:14:21.322Z,2.80
2023-04-22T09:15:21.312Z,3.30
2023-04-22T09:16:21.329Z,3.20
2023-04-22T09:17:21.323Z,3.30
2023-04-22T09:18:21.277Z,2.90
2023-04-22T09:19:21.267Z,2.70
2023-04-22T09:20:21.248Z,3.30
2023-04-22T09:21:21.241Z,3.00
2023-04-22T09:22:21.244Z,3.00
2023-04-22T09:23:21.216Z,2.60
2023-04-22T09:24:21.218Z,3.10
2023-04-22T09:25:21.213Z,3.00
2023-04-22T09:26:21.187Z,3.00
2023-04-22T09:27:21.196Z,3.00
2023-04-22T09:28:21.226Z,3.00
2023-04-22T09:29:21.159Z,2.70
2023-04-22T09:30:21.144Z,3.00
2023-04-22T09:31:21.171Z,2.90
2023-04-22T09:32:21.147Z,2.90
2023-04-22T09:33:21.117Z,3.10
2023-04-22T09:34:21.112Z,2.90
2023-04-22T09:35:21.091Z,2.80
2023-04-22T09:36:21.076Z,2.80
2023-04-22T09:37:21.099Z,3.10
2023-04-22T09:38:21.051Z,3.20
2023-04-22T09:39:21.044Z,3.00
2023-04-22T09:40:21.028Z,3.00
2023-04-22T09:41:21.037Z,2.80
2023-04-22T09:42:21.016Z,3.00
2023-04-22T09:43:21.016Z,2.60
2023-04-22T09:44:20.983Z,2.90
2023-04-22T09:45:20.972Z,2.70
2023-04-22T09:46:21.165Z,2.90
2023-04-22T09:47:20.962Z,2.80
2023-04-22T09:48:20.937Z,2.80
2023-04-22T09:49:20.928Z,2.70
2023-04-22T09:50:20.911Z,2.80
2023-04-22T09:51:20.902Z,3.10
2023-04-22T09:52:20.907Z,2.70
2023-04-22T09:53:20.879Z,2.70
2023-04-22T09:54:20.871Z,2.80
2023-04-22T09:55:20.866Z,3.10
2023-04-22T09:56:20.852Z,3.00
2023-04-22T09:57:20.891Z,2.60
2023-04-22T09:58:20.844Z,2.60
2023-04-22T09:59:20.829Z,2.70
2023-04-22T10:00:20.812Z,2.40
2023-04-22T10:01:20.866Z,2.30
2023-04-22T10:02:20.868Z,2.30
2023-04-22T10:03:20.800Z,2.60
2023-04-22T10:04:20.788Z,2.20
2023-04-22T10:05:20.769Z,2.30
2023-04-22T10:06:20.746Z,2.60
2023-04-22T10:07:20.768Z,2.30
2023-04-22T10:08:20.723Z,2.40
2023-04-22T10:09:20.706Z,2.30
2023-04-22T10:10:20.695Z,2.50
2023-04-22T10:11:20.692Z,2.40
2023-04-22T10:12:29.469Z,2.40
2023-04-22T10:13:21.679Z,2.60
2023-04-22T10:14:20.677Z,2.20
2023-04-22T10:15:20.657Z,2.20
2023-04-22T10:16:20.639Z,2.20
2023-04-22T10:17:20.616Z,2.50
2023-04-22T10:18:20.614Z,2.20
2023-04-22T10:19:20.595Z,2.50
2023-04-22T10:20:20.584Z,2.50
2023-04-22T10:21:20.580Z,2.50
2023-04-22T10:22:20.557Z,2.50
2023-04-22T10:23:20.579Z,2.60
2023-04-22T10:24:20.541Z,2.50
2023-04-22T10:25:20.521Z,2.40
2023-04-22T10:26:20.514Z,2.40
2023-04-22T10:27:20.503Z,2.30
2023-04-22T10:28:20.514Z,2.30
2023-04-22T10:29:20.510Z,2.50
2023-04-22T10:30:20.482Z,2.20
2023-04-22T10:31:20.520Z,2.40
2023-04-22T10:32:20.516Z,2.30
2023-04-22T10:33:20.464Z,2.30
2023-04-22T10:34:20.429Z,2.20
2023-04-22T10:35:20.429Z,2.30
2023-04-22T10:36:20.403Z,2.00
2023-04-22T10:37:20.408Z,2.10
2023-04-22T10:38:20.393Z,2.10
2023-04-22T10:39:20.369Z,1.90
2023-04-22T10:40:20.385Z,2.10
2023-04-22T10:41:20.351Z,2.20
2023-04-22T10:42:20.333Z,2.10
2023-04-22T10:43:20.396Z,2.00
2023-04-22T10:44:20.372Z,2.10
2023-04-22T10:45:20.347Z,2.20
2023-04-22T10:46:20.318Z,1.90
2023-04-22T10:47:20.289Z,2.00
2023-04-22T10:48:20.318Z,1.90
2023-04-22T10:49:20.271Z,2.10
2023-04-22T10:50:20.268Z,1.90
2023-04-22T10:51:20.357Z,1.90
2023-04-22T10:52:20.272Z,2.10
2023-04-22T10:53:20.257Z,2.10
2023-04-22T10:54:20.221Z,1.80
2023-04-22T10:55:20.194Z,1.90
2023-04-22T10:56:20.195Z,1.60
2023-04-22T10:57:20.178Z,1.60
2023-04-22T10:58:20.173Z,1.70
2023-04-22T10:59:20.150Z,1.90
2023-04-22T11:00:20.163Z,1.90
2023-04-22T11:01:20.180Z,1.60
2023-04-22T11:02:20.135Z,1.60
2023-04-22T11:03:20.369Z,1.70
2023-04-22T11:04:20.311Z,1.90
2023-04-22T11:05:20.087Z,1.80
2023-04-22T11:06:20.080Z,1.60
2023-04-22T11:07:20.075Z,1.70
2023-04-22T11:08:20.069Z,1.70
2023-04-22T11:09:20.055Z,1.60
2023-04-22T11:10:20.081Z,1.70
2023-04-22T11:11:20.128Z,1.80
2023-04-22T11:12:20.046Z,1.70
2023-04-22T11:13:20.011Z,1.40
2023-04-22T11:14:19.992Z,1.40
2023-04-22T11:15:19.996Z,1.60
2023-04-22T11:16:21.050Z,1.60
2023-04-22T11:17:19.971Z,1.50
2023-04-22T11:18:19.966Z,1.50
2023-04-22T11:19:19.951Z,1.60
2023-04-22T11:20:19.926Z,1.90
2023-04-22T11:21:19.929Z,1.70
2023-04-22T11:22:19.901Z,1.70
2023-04-22T11:23:19.946Z,1.40
2023-04-22T11:24:19.881Z,1.70
2023-04-22T11:25:19.878Z,1.40
2023-04-22T11:26:19.858Z,1.70
2023-04-22T11:27:19.847Z,1.50
2023-04-22T11:28:21.522Z,1.40
2023-04-22T11:29:19.822Z,1.40
2023-04-22T11:30:19.820Z,1.40
2023-04-22T11:31:19.883Z,1.70
2023-04-22T11:32:19.795Z,1.80
2023-04-22T11:33:19.817Z,1.60
2023-04-22T11:34:19.774Z,1.40
2023-04-22T11:35:19.781Z,1.60
2023-04-22T11:36:19.752Z,1.50
2023-04-22T11:37:19.742Z,1.80
2023-04-22T11:38:19.739Z,1.50
2023-04-22T11:39:19.713Z,1.90
2023-04-22T11:40:28.875Z,1.40
2023-04-22T11:41:20.697Z,1.70
2023-04-22T11:42:19.687Z,2.10
2023-04-22T11:43:19.685Z,2.00
2023-04-22T11:44:19.666Z,1.60
2023-04-22T11:45:19.658Z,1.50
2023-04-22T11:46:21.144Z,1.70
2023-04-22T11:47:19.625Z,1.60
2023-04-22T11:48:19.630Z,1.50
2023-04-22T11:49:19.624Z,1.80
2023-04-22T11:50:19.597Z,1.70
2023-04-22T11:51:19.587Z,1.60
2023-04-22T11:52:20.269Z,1.60
2023-04-22T11:53:19.576Z,1.80
2023-04-22T11:54:19.556Z,1.60
2023-04-22T11:55:19.539Z,1.50
2023-04-22T11:56:19.528Z,1.40
2023-04-22T11:57:19.515Z,1.90
2023-04-22T11:58:19.519Z,1.60
2023-04-22T11:59:19.495Z,1.70
2023-04-22T12:00:19.485Z,1.40
2023-04-22T12:01:19.475Z,1.80
2023-04-22T12:02:19.632Z,1.60
2023-04-22T12:03:19.753Z,1.60
2023-04-22T12:04:19.552Z,1.50
2023-04-22T12:05:19.495Z,1.60
2023-04-22T12:06:19.418Z,1.50
2023-04-22T12:07:19.408Z,1.70
2023-04-22T12:08:19.414Z,1.70
2023-04-22T12:09:19.386Z,1.70
2023-04-22T12:10:19.380Z,1.60
2023-04-22T12:11:19.366Z,1.50
2023-04-22T12:12:19.350Z,1.50
2023-04-22T12:13:19.386Z,1.40
2023-04-22T12:14:19.331Z,1.60
2023-04-22T12:15:19.315Z,1.30
2023-04-22T12:16:19.806Z,1.80
2023-04-22T12:17:19.377Z,1.50
2023-04-22T12:18:19.294Z,1.80
2023-04-22T12:19:19.276Z,1.60
2023-04-22T12:20:19.261Z,1.50
2023-04-22T12:21:19.269Z,1.60
2023-04-22T12:22:19.244Z,1.60
2023-04-22T12:23:19.237Z,1.60
2023-04-22T12:24:19.234Z,1.70
2023-04-22T12:25:19.206Z,1.20
2023-04-22T12:26:19.205Z,1.50
2023-04-22T12:27:19.184Z,1.10
2023-04-22T12:28:19.190Z,1.30
2023-04-22T12:29:19.176Z,1.20
2023-04-22T12:30:19.155Z,1.60
2023-04-22T12:31:19.155Z,1.60
2023-04-22T12:32:19.140Z,1.30
2023-04-22T12:33:19.133Z,1.30
2023-04-22T12:34:19.112Z,1.50
2023-04-22T12:35:19.112Z,1.40
2023-04-22T12:36:19.093Z,1.60
2023-04-22T12:37:19.111Z,1.50
2023-04-22T12:38:19.080Z,1.50
2023-04-22T12:39:19.082Z,1.40
2023-04-22T12:40:19.044Z,1.70
2023-04-22T12:41:19.040Z,1.60
2023-04-22T12:42:19.025Z,1.60
2023-04-22T12:43:19.034Z,1.60
2023-04-22T12:44:19.010Z,1.70
2023-04-22T12:45:18.989Z,1.60
2023-04-22T12:46:19.016Z,1.50
2023-04-22T12:47:19.016Z,1.50
2023-04-22T12:48:19.127Z,1.70
2023-04-22T12:49:18.967Z,1.80
2023-04-22T12:50:18.937Z,1.80
2023-04-22T12:51:18.938Z,1.70
2023-04-22T12:52:18.935Z,1.60
2023-04-22T12:53:18.934Z,1.50
2023-04-22T12:54:18.896Z,1.50
2023-04-22T12:55:18.879Z,1.40
2023-04-22T12:56:18.873Z,1.70
2023-04-22T12:57:18.865Z,1.50
2023-04-22T12:58:18.865Z,1.50
2023-04-22T12:59:18.837Z,1.70
2023-04-22T13:00:18.830Z,1.40
2023-04-22T13:01:18.837Z,1.10
2023-04-22T13:02:18.940Z,1.60
2023-04-22T13:03:18.934Z,1.70
2023-04-22T13:04:18.862Z,1.50
2023-04-22T13:05:18.765Z,1.90
2023-04-22T13:06:18.772Z,1.60
2023-04-22T13:07:18.755Z,1.50
2023-04-22T13:08:18.755Z,1.60
2023-04-22T13:09:18.748Z,1.40
2023-04-22T13:10:18.711Z,1.40
2023-04-22T13:11:18.704Z,1.30
2023-04-22T13:12:18.698Z,1.40
2023-04-22T13:13:19.505Z,1.50
2023-04-22T13:14:18.678Z,1.20
2023-04-22T13:15:18.658Z,1.50
2023-04-22T13:16:18.690Z,1.70
2023-04-22T13:17:18.647Z,1.40
2023-04-22T13:18:18.668Z,1.60
2023-04-22T13:19:18.615Z,1.60